Terminal Aerodrome Forecast
Issued by NWS Atlanta, GA

Home | Current Version | Previous Version | Text Only | Print | Product List | Glossary On
Versions: 1 2 3 4 5 6 7 8 9 10 11 12 13 14 15 16 17 18 19 20 21 22 23 24 25 26 27 28 29 30 31 32 33 34 35 36
000
FTUS42 KFFC 211946 AAA
TAFMCN
TAF AMD
KMCN 211946Z 2120/2218 30012G22KT P6SM SCT050 BKN080
     FM212100 30014G24KT P6SM SCT120
     FM220100 29006KT P6SM FEW250=

USA.gov is the U.S. government's official web portal to all federal, state and local government web resources and services.